KLOR/LOR METAR and TAF weather

Enter ICAO airport designator
Station Type Date Time Source
KLOR METAR 2019/10/22 16:58 UTC NOAA

KLOR 221658Z AUTO 33007KT 9SM FEW055 22/11 A3004 RMK AO2 SLP154 T02240106


Station Type Date Time Source
KLOR Decoded METAR 2019/10/22 16:58 UTC NOAA

Fort Rucker, Lowe Army Heliport, AL, United States (KLOR) 31-21-32N 085-44-54W 93M
Oct 22, 2019 - 12:58 PM EDT / 2019.10.22 1658 UTC
Wind: from the NNW (330 degrees) at 8 MPH (7 KT):0
Visibility: 9 mile(s):0
Sky conditions: mostly clear
Temperature: 72.3 F (22.4 C)
Dew Point: 51.1 F (10.6 C)
Relative Humidity: 47%
Pressure (altimeter): 30.04 in. Hg (1017 hPa)
ob: KLOR 221658Z AUTO 33007KT 9SM FEW055 22/11 A3004 RMK AO2 SLP154 T02240106
cycle: 17

Station Type Date Time Source
KLOR TAF UTC NOAA

Error!

Example: see airport list